Time;durP1;ratioP1;P1;durP2;ratioP2;P2;SDS_P1;SDS_P2;PMS_P1;PMS_P2;Temp;Humidity;BMP_temperature;BMP_pressure;BME280_temperature;BME280_humidity;BME280_pressure;Samples;Min_cycle;Max_cycle;Signal;HPM_P1;HPM_P2
2023/02/07 00:00:22;;;;;;;;;17.00;14.00;;;;;5.35;100.00;102839.78;4927727;28;46433;-82
2023/02/07 00:02:55;;;;;;;;;18.00;15.67;;;;;5.53;100.00;102849.75;4926188;28;45744;-81
2023/02/07 00:05:21;;;;;;;;;19.67;15.33;;;;;5.41;100.00;102844.53;4909115;28;45442;-82
2023/02/07 00:08:42;;;;;;;;;20.00;15.00;;;;;5.51;100.00;102836.44;4925776;28;45459;-83
2023/02/07 00:11:15;;;;;;;;;13.67;13.67;;;;;5.44;100.00;102825.41;4926722;28;46545;-82
2023/02/07 00:13:42;;;;;;;;;18.00;13.00;;;;;5.38;100.00;102832.06;4930189;28;45393;-82
2023/02/07 00:16:08;;;;;;;;;18.00;14.00;;;;;5.37;100.00;102834.59;4924941;28;45418;-82
2023/02/07 00:18:34;;;;;;;;;14.33;11.67;;;;;5.29;100.00;102819.97;4927082;28;45369;-82
2023/02/07 00:21:03;;;;;;;;;16.33;14.67;;;;;5.39;100.00;102830.34;4924898;28;45441;-82
2023/02/07 00:23:29;;;;;;;;;23.00;18.00;;;;;5.34;100.00;102815.94;4924139;28;45714;-82
2023/02/07 00:25:55;;;;;;;;;18.67;17.00;;;;;5.32;100.00;102812.28;4923769;28;45494;-82
2023/02/07 00:28:21;;;;;;;;;16.67;16.67;;;;;5.30;100.00;102820.06;4908017;28;45921;-82
2023/02/07 00:30:46;;;;;;;;;18.00;18.00;;;;;5.29;100.00;102823.53;4924760;28;45355;-82
2023/02/07 00:33:13;;;;;;;;;14.00;14.00;;;;;5.35;100.00;102817.75;4908979;28;45775;-82
2023/02/07 00:35:39;;;;;;;;;14.67;13.67;;;;;5.30;100.00;102814.78;4927489;28;45449;-82
2023/02/07 00:38:04;;;;;;;;;18.33;17.33;;;;;5.32;100.00;102818.44;4923899;28;45437;-83
2023/02/07 00:40:29;;;;;;;;;16.00;13.67;;;;;5.25;100.00;102795.13;4909855;28;48577;-82
2023/02/07 00:42:55;;;;;;;;;13.00;13.00;;;;;5.27;100.00;102811.97;4910115;28;45478;-82
2023/02/07 00:45:20;;;;;;;;;18.00;14.00;;;;;5.22;100.00;102800.16;4925333;28;45486;-82
2023/02/07 00:47:46;;;;;;;;;18.33;17.33;;;;;5.20;100.00;102809.69;4926979;28;45686;-82
2023/02/07 00:50:11;;;;;;;;;15.00;14.67;;;;;5.25;100.00;102818.84;4909204;28;46715;-82
2023/02/07 00:52:37;;;;;;;;;13.33;11.67;;;;;5.22;100.00;102808.97;4926399;28;45609;-82
2023/02/07 00:55:02;;;;;;;;;14.00;12.00;;;;;5.24;100.00;102806.47;4907845;28;45887;-82
2023/02/07 00:57:27;;;;;;;;;15.00;11.00;;;;;5.22;100.00;102813.34;4909473;28;45267;-81
2023/02/07 00:59:53;;;;;;;;;14.33;14.00;;;;;5.24;100.00;102816.09;4907594;28;47108;-82
2023/02/07 01:02:18;;;;;;;;;14.67;9.33;;;;;5.25;100.00;102816.22;4926108;28;45410;-82
2023/02/07 01:04:44;;;;;;;;;12.67;12.00;;;;;5.23;100.00;102817.81;4901218;29;45573;-82
2023/02/07 01:07:09;;;;;;;;;15.33;14.00;;;;;5.17;100.00;102814.75;4889560;29;45450;-81
2023/02/07 01:09:34;;;;;;;;;14.33;13.00;;;;;5.20;100.00;102825.53;4906196;29;47278;-82
2023/02/07 01:12:00;;;;;;;;;15.00;13.33;;;;;5.16;100.00;102812.94;4904951;29;45647;-82
2023/02/07 01:14:25;;;;;;;;;12.00;11.00;;;;;5.23;100.00;102823.06;4904605;29;45723;-82
2023/02/07 01:16:51;;;;;;;;;16.67;14.00;;;;;5.08;100.00;102807.13;4889183;29;45280;-82
2023/02/07 01:19:17;;;;;;;;;14.67;14.67;;;;;5.18;100.00;102824.50;4905373;29;47419;-82
2023/02/07 01:21:42;;;;;;;;;11.67;9.00;;;;;5.12;100.00;102826.72;4903658;29;45678;-82
2023/02/07 01:24:08;;;;;;;;;18.67;14.67;;;;;5.10;100.00;102818.69;4904951;29;45498;-83
2023/02/07 01:26:36;;;;;;;;;16.33;13.33;;;;;5.13;100.00;102815.34;4904291;29;45430;-82
2023/02/07 01:29:01;;;;;;;;;19.00;17.67;;;;;5.07;100.00;102801.72;4888372;29;47696;-82
2023/02/07 01:31:27;;;;;;;;;13.00;13.00;;;;;5.12;100.00;102809.16;4904092;29;45382;-82
2023/02/07 01:33:57;;;;;;;;;19.00;15.00;;;;;5.15;100.00;102804.09;4903960;29;45349;-82
2023/02/07 01:36:27;;;;;;;;;14.67;12.67;;;;;5.16;100.00;102812.94;4906289;29;45759;-82
2023/02/07 01:38:53;;;;;;;;;18.00;14.00;;;;;5.12;100.00;102808.25;4886701;29;46765;-82
2023/02/07 01:41:21;;;;;;;;;14.33;14.33;;;;;5.06;100.00;102803.47;4887499;29;45581;-82
2023/02/07 01:44:00;;;;;;;;;19.00;17.33;;;;;5.15;100.00;102804.09;4905478;29;45310;-83
2023/02/07 01:46:26;;;;;;;;;14.33;14.00;;;;;5.07;100.00;102796.44;4903949;29;45504;-82
2023/02/07 01:48:55;;;;;;;;;15.33;12.33;;;;;5.08;100.00;102806.22;4904533;29;45343;-83
2023/02/07 01:51:21;;;;;;;;;15.67;15.67;;;;;4.93;100.00;102788.50;4904239;29;45431;-82
2023/02/07 01:53:47;;;;;;;;;13.33;11.67;;;;;4.95;100.00;102804.44;4886342;29;45794;-83
2023/02/07 01:56:15;;;;;;;;;14.67;13.00;;;;;4.89;100.00;102789.09;4903022;29;45795;-82
2023/02/07 01:58:41;;;;;;;;;16.67;15.67;;;;;4.77;100.00;102788.25;4904865;29;46748;-82
2023/02/07 02:01:12;;;;;;;;;14.00;13.00;;;;;4.75;100.00;102776.69;4905288;29;45360;-82
2023/02/07 02:03:42;;;;;;;;;13.67;13.33;;;;;4.76;100.00;102791.69;4906128;29;45465;-82
2023/02/07 02:06:10;;;;;;;;;15.33;13.67;;;;;4.67;100.00;102786.69;4904327;29;45436;-82
2023/02/07 02:08:35;;;;;;;;;17.33;16.67;;;;;4.64;100.00;102789.09;4889019;29;47491;-82
2023/02/07 02:11:18;;;;;;;;;13.67;12.33;;;;;4.67;100.00;102778.78;4888407;29;45439;-82
2023/02/07 02:13:56;;;;;;;;;16.33;14.67;;;;;4.71;100.00;102787.81;4905472;29;45363;-81
2023/02/07 02:16:30;;;;;;;;;18.67;14.67;;;;;4.65;100.00;102782.13;4889821;29;45289;-82
2023/02/07 02:19:29;;;;;;;;;19.67;17.00;;;;;4.73;100.00;102786.22;4905405;29;47497;-82
2023/02/07 02:22:19;;;;;;;;;13.67;13.67;;;;;4.77;100.00;102775.06;4904279;29;45461;-82
2023/02/07 02:25:06;;;;;;;;;17.67;13.33;;;;;4.72;100.00;102773.81;4903004;29;45418;-82
2023/02/07 02:27:44;;;;;;;;;19.33;15.33;;;;;4.69;100.00;102778.88;4906405;28;45349;-82
2023/02/07 02:30:27;;;;;;;;;15.33;13.67;;;;;4.70;100.00;102783.34;4924695;28;45790;-84
2023/02/07 02:33:18;;;;;;;;;16.67;13.33;;;;;4.70;100.00;102773.69;4924075;28;45449;-82
2023/02/07 02:35:49;;;;;;;;;19.67;17.67;;;;;4.69;100.00;102769.25;4908837;28;45430;-81
2023/02/07 02:38:20;;;;;;;;;21.00;18.00;;;;;4.62;100.00;102764.34;4911002;28;45465;-83
2023/02/07 02:41:05;;;;;;;;;18.00;18.00;;;;;4.69;100.00;102768.34;4909573;28;48694;-82
2023/02/07 02:43:35;;;;;;;;;22.00;17.33;;;;;4.59;100.00;102749.22;4909363;28;45427;-83
2023/02/07 02:46:13;;;;;;;;;15.67;14.67;;;;;4.61;100.00;102755.53;4928140;28;45340;-83
2023/02/07 02:48:42;;;;;;;;;20.67;18.00;;;;;4.59;100.00;102765.03;4910144;28;45398;-82
2023/02/07 02:51:08;;;;;;;;;17.67;17.00;;;;;4.53;100.00;102772.50;4910302;28;47240;-82
2023/02/07 02:53:34;;;;;;;;;14.00;13.00;;;;;4.43;100.00;102761.22;4911025;28;45477;-83
2023/02/07 02:56:08;;;;;;;;;14.33;14.33;;;;;4.47;100.00;102772.09;4909283;28;45416;-81
2023/02/07 02:58:55;;;;;;;;;20.67;18.33;;;;;4.56;100.00;102774.44;4910142;28;45467;-82
2023/02/07 03:01:59;;;;;;;;;21.00;14.00;;;;;4.55;100.00;102768.28;4928386;28;46349;-82
2023/02/07 03:04:43;;;;;;;;;16.67;16.00;;;;;4.56;100.00;102772.72;4910147;28;45365;-83
2023/02/07 03:07:45;;;;;;;;;13.33;11.33;;;;;4.56;100.00;102764.81;4927150;28;45551;-82
2023/02/07 03:10:39;;;;;;;;;14.67;14.67;;;;;4.52;100.00;102762.75;4909203;28;44961;-83
2023/02/07 03:13:33;;;;;;;;;18.00;16.00;;;;;4.49;100.00;102764.28;4926671;28;46469;-82
2023/02/07 03:16:21;;;;;;;;;15.00;15.00;;;;;4.39;100.00;102768.88;4925745;28;46035;-82
2023/02/07 03:19:08;;;;;;;;;20.67;17.00;;;;;4.28;100.00;102761.03;4925345;28;45397;-82
2023/02/07 03:21:49;;;;;;;;;16.00;15.00;;;;;4.33;100.00;102757.00;4909125;28;45603;-82
2023/02/07 03:24:20;;;;;;;;;12.33;9.67;;;;;4.32;100.00;102745.56;4909267;28;46899;-83
2023/02/07 03:26:48;;;;;;;;;19.33;16.67;;;;;4.29;100.00;102750.59;4926306;28;45774;-82
2023/02/07 03:29:16;;;;;;;;;17.67;14.33;;;;;4.25;100.00;102752.91;4925036;28;45486;-84
2023/02/07 03:31:47;;;;;;;;;16.67;14.00;;;;;4.22;100.00;102743.03;4926081;28;45566;-82
2023/02/07 03:34:17;;;;;;;;;15.33;13.67;;;;;4.22;100.00;102748.31;4925272;28;46676;-82
2023/02/07 03:36:57;;;;;;;;;22.67;19.67;;;;;4.23;100.00;102751.88;4908959;28;45496;-82
2023/02/07 03:39:24;;;;;;;;;18.67;16.67;;;;;4.13;100.00;102751.22;4926036;28;44855;-82
2023/02/07 03:41:56;;;;;;;;;26.00;20.67;;;;;4.22;100.00;102772.00;4927420;28;45419;-82
2023/02/07 03:44:25;;;;;;;;;21.67;15.00;;;;;4.12;100.00;102773.09;4929096;28;45289;-82
2023/02/07 03:46:53;;;;;;;;;22.67;16.67;;;;;4.03;100.00;102756.63;4926085;28;45440;-82
2023/02/07 03:49:19;;;;;;;;;16.67;16.00;;;;;4.05;100.00;102756.72;4925338;28;45417;-82
2023/02/07 03:51:47;;;;;;;;;19.00;17.00;;;;;4.15;100.00;102780.28;4910809;28;45381;-83
2023/02/07 03:54:13;;;;;;;;;21.67;16.00;;;;;3.98;100.00;102763.28;4926177;28;47767;-83
2023/02/07 03:56:39;;;;;;;;;18.00;17.67;;;;;4.10;100.00;102790.50;4925230;28;45502;-83
2023/02/07 03:59:04;;;;;;;;;17.33;13.67;;;;;3.98;100.00;102763.28;4924741;28;45393;-82
2023/02/07 04:01:30;;;;;;;;;20.33;16.67;;;;;4.03;100.00;102788.22;4910681;28;45579;-82
2023/02/07 04:03:56;;;;;;;;;19.33;19.33;;;;;4.00;100.00;102772.19;4926281;28;45024;-82
2023/02/07 04:06:21;;;;;;;;;19.67;15.33;;;;;3.98;100.00;102779.06;4927366;28;45441;-83
2023/02/07 04:08:47;;;;;;;;;19.67;18.67;;;;;4.00;100.00;102785.38;4926630;28;45709;-83
2023/02/07 04:11:12;;;;;;;;;13.67;13.67;;;;;3.96;100.00;102783.31;4925082;28;45473;-83
2023/02/07 04:13:38;;;;;;;;;14.33;14.33;;;;;3.93;100.00;102776.06;4925143;28;45381;-83
2023/02/07 04:16:04;;;;;;;;;15.33;15.33;;;;;3.99;100.00;102776.53;4926485;28;45500;-83
2023/02/07 04:18:30;;;;;;;;;17.67;17.00;;;;;3.98;100.00;102758.00;4926028;28;45533;-83
2023/02/07 04:21:03;;;;;;;;;22.67;20.33;;;;;4.10;100.00;102779.03;4926147;28;45406;-83
2023/02/07 04:23:29;;;;;;;;;16.00;16.00;;;;;4.01;100.00;102782.81;4926271;28;46250;-83
2023/02/07 04:25:54;;;;;;;;;19.33;18.33;;;;;4.02;100.00;102786.41;4907407;28;45488;-83
2023/02/07 04:28:19;;;;;;;;;17.33;13.67;;;;;4.03;100.00;102782.03;4908195;28;45496;-82
2023/02/07 04:30:45;;;;;;;;;23.00;19.33;;;;;3.92;100.00;102768.06;4925356;28;45372;-82
2023/02/07 04:33:10;;;;;;;;;19.33;17.33;;;;;3.91;100.00;102787.31;4924912;28;45320;-83
2023/02/07 04:35:35;;;;;;;;;21.33;19.00;;;;;3.89;100.00;102766.13;4924247;28;45709;-83
2023/02/07 04:38:01;;;;;;;;;20.67;16.67;;;;;3.85;100.00;102761.44;4923384;28;45811;-83
2023/02/07 04:40:26;;;;;;;;;21.67;15.33;;;;;3.88;100.00;102776.53;4922964;28;45456;-83
2023/02/07 04:42:51;;;;;;;;;18.33;17.00;;;;;3.82;100.00;102777.03;4923521;28;46077;-83
2023/02/07 04:45:17;;;;;;;;;20.67;20.67;;;;;3.78;100.00;102780.22;4924306;28;45725;-83
2023/02/07 04:47:42;;;;;;;;;18.00;16.67;;;;;3.80;100.00;102797.03;4908627;28;45445;-83
2023/02/07 04:56:52;;;;;;;;;15.00;14.33;;;;;3.79;100.00;102803.09;4925662;28;45315;-82
2023/02/07 04:59:17;;;;;;;;;27.33;20.67;;;;;3.78;100.00;102786.41;4905099;28;45708;-82
2023/02/07 05:01:42;;;;;;;;;20.00;18.33;;;;;3.83;100.00;102810.41;4923848;28;45488;-83
2023/02/07 05:04:07;;;;;;;;;18.00;13.33;;;;;3.77;100.00;102799.44;4923878;28;46114;-82
2023/02/07 05:06:33;;;;;;;;;17.67;16.67;;;;;3.65;100.00;102794.16;4925663;28;45460;-83
2023/02/07 05:08:58;;;;;;;;;17.00;17.00;;;;;3.66;100.00;102801.28;4916917;28;45556;-82
2023/02/07 05:11:24;;;;;;;;;20.33;18.00;;;;;3.63;100.00;102801.03;4889940;29;45456;-82
2023/02/07 05:13:49;;;;;;;;;21.00;18.67;;;;;3.65;100.00;102809.94;4888968;29;47031;-82
2023/02/07 05:16:14;;;;;;;;;21.00;18.00;;;;;3.61;100.00;102802.63;4904274;29;45558;-82
2023/02/07 05:18:46;;;;;;;;;14.00;10.33;;;;;3.72;100.00;102807.00;4904605;29;45384;-82
2023/02/07 05:21:12;;;;;;;;;21.00;16.67;;;;;3.68;100.00;102815.47;4904229;29;45650;-82
2023/02/07 05:23:37;;;;;;;;;15.00;14.67;;;;;3.71;100.00;102814.75;4885617;29;47043;-83
2023/02/07 05:26:02;;;;;;;;;23.33;17.67;;;;;3.72;100.00;102817.53;4903831;29;45480;-82
2023/02/07 05:28:28;;;;;;;;;17.33;16.00;;;;;3.65;100.00;102809.94;4904311;29;45887;-83
2023/02/07 05:30:55;;;;;;;;;16.67;16.00;;;;;3.71;100.00;102815.66;4886868;29;45464;-82
2023/02/07 05:33:20;;;;;;;;;18.00;15.33;;;;;3.67;100.00;102812.72;4888022;29;48671;-82
2023/02/07 05:35:46;;;;;;;;;16.67;16.33;;;;;3.57;100.00;102797.94;4889837;29;45934;-83
2023/02/07 05:38:14;;;;;;;;;21.00;15.33;;;;;3.63;100.00;102808.91;4887549;29;45461;-82
2023/02/07 05:40:49;;;;;;;;;16.33;15.00;;;;;3.57;100.00;102811.09;4906226;29;45432;-83
2023/02/07 05:43:14;;;;;;;;;20.00;18.67;;;;;3.52;100.00;102808.13;4888665;29;47187;-82
2023/02/07 05:45:40;;;;;;;;;12.00;9.00;;;;;3.55;100.00;102815.31;4888803;29;44820;-82
2023/02/07 05:48:05;;;;;;;;;21.00;19.67;;;;;3.46;100.00;102801.50;4906181;29;45361;-82
2023/02/07 05:50:31;;;;;;;;;20.33;18.33;;;;;3.58;100.00;102812.94;4889465;29;45357;-83
2023/02/07 05:52:56;;;;;;;;;14.33;10.00;;;;;3.54;100.00;102810.88;4888716;29;47106;-83
2023/02/07 05:55:22;;;;;;;;;19.00;15.67;;;;;3.58;100.00;102823.47;4888925;29;45701;-83
2023/02/07 05:57:47;;;;;;;;;27.00;18.33;;;;;3.55;100.00;102815.31;4889436;29;45537;-82
2023/02/07 06:00:16;;;;;;;;;17.33;16.00;;;;;3.59;100.00;102825.28;4906759;29;45402;-82
2023/02/07 06:02:42;;;;;;;;;25.67;22.00;;;;;3.56;100.00;102831.22;4889254;29;47496;-82
2023/02/07 06:05:10;;;;;;;;;15.67;13.33;;;;;3.49;100.00;102806.97;4890185;29;45634;-83
2023/02/07 06:07:35;;;;;;;;;21.67;21.67;;;;;3.52;100.00;102812.47;4905481;29;45426;-83
2023/02/07 06:10:01;;;;;;;;;14.33;13.33;;;;;3.48;100.00;102797.25;4908351;29;45398;-83
2023/02/07 06:12:27;;;;;;;;;21.00;20.00;;;;;3.52;100.00;102817.75;4911344;29;46736;-83
2023/02/07 06:14:52;;;;;;;;;19.67;19.67;;;;;3.51;100.00;102819.44;4908770;29;45342;-82
2023/02/07 06:17:17;;;;;;;;;26.67;23.67;;;;;3.53;100.00;102843.22;4892724;28;45549;-82
2023/02/07 06:19:43;;;;;;;;;17.33;17.33;;;;;3.44;100.00;102834.66;4912422;28;45429;-82
2023/02/07 06:22:42;;;;;;;;;15.00;14.00;;;;;3.55;100.00;102823.22;4913018;28;46889;-83
2023/02/07 06:25:10;;;;;;;;;19.33;19.00;;;;;3.42;100.00;102831.00;4912404;28;44810;-82
2023/02/07 06:27:39;;;;;;;;;15.00;15.00;;;;;3.33;100.00;102826.84;4911541;28;45348;-82
2023/02/07 06:30:06;;;;;;;;;20.33;19.67;;;;;3.33;100.00;102837.38;4911467;28;45330;-82
2023/02/07 06:32:32;;;;;;;;;19.33;19.00;;;;;3.38;100.00;102856.13;4910698;28;47340;-82
2023/02/07 06:34:57;;;;;;;;;18.67;16.00;;;;;3.35;100.00;102846.31;4910408;28;45784;-82
2023/02/07 06:37:23;;;;;;;;;22.00;19.00;;;;;3.34;100.00;102838.28;4927203;28;45338;-82
2023/02/07 06:39:48;;;;;;;;;19.33;15.67;;;;;3.36;100.00;102836.69;4929011;28;45302;-83
2023/02/07 06:42:13;;;;;;;;;16.33;15.67;;;;;3.46;100.00;102848.84;4910017;28;47146;-82
2023/02/07 06:44:39;;;;;;;;;14.33;14.33;;;;;3.45;100.00;102847.91;4909258;28;45476;-81
2023/02/07 06:47:05;;;;;;;;;19.33;17.33;;;;;3.44;100.00;102839.91;4928876;28;45387;-81
2023/02/07 06:49:31;;;;;;;;;19.00;15.33;;;;;3.33;100.00;102837.38;4909239;28;45394;-81
2023/02/07 06:51:56;;;;;;;;;14.67;13.00;;;;;3.38;100.00;102851.78;4908507;28;46866;-81
2023/02/07 06:54:22;;;;;;;;;14.00;12.00;;;;;3.39;100.00;102864.16;4908723;28;45381;-82
2023/02/07 06:56:47;;;;;;;;;19.67;14.67;;;;;3.33;100.00;102847.91;4928681;28;45535;-82
2023/02/07 06:59:13;;;;;;;;;20.33;19.00;;;;;3.39;100.00;102857.94;4911857;28;45538;-82
2023/02/07 07:01:38;;;;;;;;;15.67;15.67;;;;;3.31;100.00;102857.38;4911029;28;48141;-82
2023/02/07 07:04:03;;;;;;;;;18.00;17.33;;;;;3.35;100.00;102866.41;4928530;28;45749;-83
2023/02/07 07:06:29;;;;;;;;;13.33;13.00;;;;;3.30;100.00;102863.41;4911192;28;45504;-82
2023/02/07 07:08:54;;;;;;;;;17.00;15.67;;;;;3.31;100.00;102849.50;4910816;28;45581;-82
2023/02/07 07:11:20;;;;;;;;;19.67;18.67;;;;;3.36;100.00;102868.25;4910764;28;46635;-82
2023/02/07 07:13:45;;;;;;;;;21.00;17.00;;;;;3.33;100.00;102863.69;4925053;28;45424;-82
2023/02/07 07:16:11;;;;;;;;;12.00;12.00;;;;;3.31;100.00;102867.91;4926994;28;45447;-83
2023/02/07 07:18:37;;;;;;;;;19.00;18.00;;;;;3.36;100.00;102895.47;4927850;28;45436;-82
2023/02/07 07:21:04;;;;;;;;;19.33;16.00;;;;;3.29;100.00;102874.75;4916930;28;47145;-82
2023/02/07 07:23:29;;;;;;;;;13.67;13.67;;;;;3.33;100.00;102889.03;4910995;29;45243;-83
2023/02/07 07:25:55;;;;;;;;;19.67;13.00;;;;;3.33;100.00;102896.91;4891080;29;45429;-82
2023/02/07 07:28:20;;;;;;;;;20.33;16.00;;;;;3.34;100.00;102889.16;4916151;28;45496;-83
2023/02/07 07:30:46;;;;;;;;;21.00;17.33;;;;;3.33;100.00;102889.97;4912089;28;47912;-82
2023/02/07 07:33:12;;;;;;;;;15.33;9.67;;;;;3.37;100.00;102881.53;4910170;28;45639;-84
2023/02/07 07:35:38;;;;;;;;;15.00;13.00;;;;;3.31;100.00;102865.28;4929335;28;45460;-82
2023/02/07 07:38:04;;;;;;;;;17.33;17.33;;;;;3.42;100.00;102879.25;4911628;28;45381;-81
2023/02/07 07:40:29;;;;;;;;;15.00;12.00;;;;;3.42;100.00;102870.44;4906796;29;47286;-81
2023/02/07 07:42:54;;;;;;;;;17.00;17.00;;;;;3.39;100.00;102876.34;4909769;29;45409;-79
2023/02/07 07:45:21;;;;;;;;;13.00;10.33;;;;;3.44;100.00;102897.78;4913504;28;46167;-83
2023/02/07 07:47:47;;;;;;;;;15.33;13.33;;;;;3.36;100.00;102891.91;4911326;28;45823;-83
2023/02/07 07:50:12;;;;;;;;;14.00;12.67;;;;;3.30;100.00;102887.09;4928801;28;46237;-83
2023/02/07 07:52:38;;;;;;;;;12.00;12.00;;;;;3.37;100.00;102873.63;4911776;28;45379;-83
2023/02/07 07:55:03;;;;;;;;;13.00;13.00;;;;;3.45;100.00;102889.06;4912216;28;46002;-83
2023/02/07 07:57:30;;;;;;;;;23.00;18.33;;;;;3.51;100.00;102900.06;4912309;28;45395;-83
2023/02/07 07:59:56;;;;;;;;;19.67;19.00;;;;;3.38;100.00;102882.44;4910778;28;47123;-82
2023/02/07 08:02:23;;;;;;;;;13.67;13.67;;;;;3.38;100.00;102885.97;4911249;28;45651;-82
2023/02/07 08:04:49;;;;;;;;;15.33;13.00;;;;;3.36;100.00;102874.41;4912687;28;45447;-82
2023/02/07 08:07:14;;;;;;;;;20.67;16.00;;;;;3.48;100.00;102898.13;4927944;28;45531;-82
2023/02/07 08:09:40;;;;;;;;;17.33;17.33;;;;;3.42;100.00;102879.25;4927628;28;48368;-82
2023/02/07 08:12:05;;;;;;;;;17.00;15.00;;;;;3.47;100.00;102877.88;4909553;28;45474;-82
2023/02/07 08:14:31;;;;;;;;;17.00;15.33;;;;;3.54;100.00;102903.88;4910572;28;45339;-82
2023/02/07 08:16:56;;;;;;;;;12.00;11.33;;;;;3.51;100.00;102889.53;4912780;28;45426;-81
2023/02/07 08:19:22;;;;;;;;;17.00;15.33;;;;;3.58;100.00;102891.88;4896039;28;47516;-82
2023/02/07 08:21:49;;;;;;;;;16.67;14.67;;;;;3.75;100.00;102896.69;4917569;28;45445;-82
2023/02/07 08:24:15;;;;;;;;;15.00;14.67;;;;;3.75;100.00;102911.56;4914031;28;45409;-83
2023/02/07 08:26:41;;;;;;;;;17.00;13.00;;;;;3.73;100.00;102890.38;4914830;28;44853;-83
2023/02/07 08:29:06;;;;;;;;;15.33;15.33;;;;;3.77;100.00;102908.25;4915471;28;47808;-82
2023/02/07 08:31:34;;;;;;;;;13.00;11.67;;;;;3.84;100.00;102913.97;4931552;28;45339;-83
2023/02/07 08:33:59;;;;;;;;;13.67;12.33;;;;;3.79;100.00;102919.81;4911474;28;45503;-83
2023/02/07 08:36:25;;;;;;;;;16.00;13.00;;;;;3.79;100.00;102913.63;4909909;28;45425;-82
2023/02/07 08:38:51;;;;;;;;;15.67;12.67;;;;;3.75;100.00;102898.41;4890859;28;47283;-80
2023/02/07 08:44:40;;;;;;;;;18.67;16.00;;;;;3.94;100.00;102916.53;4917801;28;45463;-82
2023/02/07 08:47:05;;;;;;;;;17.67;16.00;;;;;3.89;100.00;102908.28;4916476;28;45498;-81
2023/02/07 08:49:31;;;;;;;;;19.00;16.67;;;;;3.94;100.00;102916.53;4932378;28;45710;-83
2023/02/07 08:51:56;;;;;;;;;19.00;16.67;;;;;3.95;100.00;102905.19;4904189;28;44918;-83
2023/02/07 08:54:22;;;;;;;;;11.00;11.00;;;;;3.95;100.00;102918.34;4895256;28;44890;-80
2023/02/07 08:56:49;;;;;;;;;19.33;16.33;;;;;3.99;100.00;102902.91;4910994;28;44955;-82
2023/02/07 08:59:15;;;;;;;;;19.67;17.33;;;;;4.01;100.00;102903.03;4909644;28;47711;-80
2023/02/07 09:01:41;;;;;;;;;15.67;14.00;;;;;4.00;100.00;102899.47;4905852;28;45685;-81
2023/02/07 09:04:07;;;;;;;;;16.00;13.33;;;;;4.02;100.00;102894.34;4900782;28;45415;-81
2023/02/07 09:06:32;;;;;;;;;16.33;16.33;;;;;4.05;100.00;102889.28;4927447;28;45428;-85
2023/02/07 09:09:41;;;;;;;;;19.67;17.33;;;;;4.19;100.00;102891.22;4901801;29;47206;-83
2023/02/07 09:12:10;;;;;;;;;16.33;12.33;;;;;4.17;100.00;102892.84;4925997;28;45472;-82
2023/02/07 09:14:36;;;;;;;;;13.67;11.67;;;;;4.24;100.00;102902.09;4903150;28;45783;-83
2023/02/07 09:17:03;;;;;;;;;19.67;15.00;;;;;4.26;100.00;102915.38;4906726;28;45677;-83
2023/02/07 09:19:28;;;;;;;;;14.00;10.67;;;;;4.13;100.00;102882.88;4908504;28;47419;-81
2023/02/07 09:21:55;;;;;;;;;10.00;10.00;;;;;4.39;100.00;102904.97;4923593;28;45393;-82
2023/02/07 09:24:20;;;;;;;;;19.33;16.33;;;;;4.36;100.00;102917.91;4900136;28;45465;-82
2023/02/07 09:26:46;;;;;;;;;17.67;17.00;;;;;4.29;100.00;102894.56;4917343;28;45437;-83
2023/02/07 09:29:21;;;;;;;;;13.00;13.00;;;;;4.27;100.00;102872.47;4910842;28;46711;-84
2023/02/07 09:31:50;;;;;;;;;16.33;16.33;;;;;4.06;100.00;102840.16;4911917;28;45489;-83
2023/02/07 09:34:18;;;;;;;;;16.33;15.00;;;;;4.23;100.00;102859.88;4920852;28;45629;-81
2023/02/07 09:36:57;;;;;;;;;20.67;17.00;;;;;4.38;100.00;102884.69;4904055;28;45503;-83
2023/02/07 09:39:43;;;;;;;;;12.00;12.00;;;;;4.44;100.00;102882.50;4908914;28;45437;-83
2023/02/07 09:42:27;;;;;;;;;14.33;12.00;;;;;4.25;100.00;102879.34;4907421;28;45487;-83
2023/02/07 09:45:31;;;;;;;;;13.00;13.00;;;;;4.59;100.00;102927.53;4911854;28;44881;-83
2023/02/07 09:48:11;;;;;;;;;10.00;6.00;;;;;4.63;100.00;102918.13;4916099;28;44899;-82
2023/02/07 09:50:44;;;;;;;;;12.33;9.67;;;;;4.64;100.00;102933.13;4911228;28;47715;-81
2023/02/07 09:53:22;;;;;;;;;10.67;10.67;;;;;4.56;100.00;102917.66;4924194;28;45397;-82
2023/02/07 09:55:51;;;;;;;;;17.33;14.33;;;;;4.71;100.00;102940.69;4908944;29;45348;-82
2023/02/07 09:58:34;;;;;;;;;14.67;12.33;;;;;4.58;100.00;102925.69;4911027;28;45510;-83
2023/02/07 10:01:42;;;;;;;;;12.33;10.33;;;;;4.72;100.00;102937.25;4927328;28;45169;-81
2023/02/07 10:04:20;;;;;;;;;15.33;14.00;;;;;4.73;100.00;102933.81;4908581;28;45468;-83
2023/02/07 10:06:51;;;;;;;;;10.33;10.33;;;;;4.71;100.00;102941.59;4923907;28;44937;-81
2023/02/07 10:09:21;;;;;;;;;13.00;13.00;;;;;4.45;100.00;102900.16;4897524;28;45565;-82
2023/02/07 10:12:05;;;;;;;;;13.00;10.67;;;;;4.67;100.00;102930.72;4896957;28;47248;-81
2023/02/07 10:14:38;;;;;;;;;14.00;14.00;;;;;4.73;100.00;102923.28;4909580;28;45375;-81
2023/02/07 10:17:13;;;;;;;;;14.00;12.67;;;;;4.72;100.00;102931.97;4907779;28;45524;-81
2023/02/07 10:19:50;;;;;;;;;12.33;12.33;;;;;4.80;100.00;102946.63;4902472;28;45351;-81
2023/02/07 10:22:30;;;;;;;;;17.33;14.33;;;;;4.85;100.00;102939.97;4914209;28;48097;-80
2023/02/07 10:25:20;;;;;;;;;13.00;10.00;;;;;4.94;100.00;102939.72;4909031;28;45477;-80
2023/02/07 10:27:56;;;;;;;;;19.00;12.67;;;;;4.93;100.00;102923.00;4909028;28;45794;-81
2023/02/07 10:30:34;;;;;;;;;10.33;10.00;;;;;4.96;100.00;102924.91;4908679;28;45464;-80
2023/02/07 10:33:17;;;;;;;;;15.00;14.33;;;;;5.06;100.00;102926.50;4916938;28;45490;-81
2023/02/07 10:35:47;;;;;;;;;13.00;10.00;;;;;5.05;100.00;102922.03;4890791;29;44840;-82
2023/02/07 10:38:38;;;;;;;;;14.33;12.67;;;;;5.20;100.00;102933.69;4907519;28;45564;-79
2023/02/07 10:41:13;;;;;;;;;13.33;13.00;;;;;5.17;100.00;102937.03;4906309;28;45463;-81
2023/02/07 10:43:42;;;;;;;;;17.33;16.33;;;;;5.17;100.00;102917.63;4915667;28;45472;-81
2023/02/07 10:46:10;;;;;;;;;17.67;14.67;;;;;5.23;100.00;102925.97;4908727;28;45592;-81
2023/02/07 10:52:01;;;;;;;;;15.00;13.00;;;;;5.32;100.00;102920.44;4921562;28;45567;-81
2023/02/07 10:54:29;;;;;;;;;10.67;8.33;;;;;5.38;100.00;102934.06;4901475;28;47142;-83
2023/02/07 10:57:00;;;;;;;;;14.00;14.00;;;;;5.31;100.00;102915.97;4913897;28;45542;-83
2023/02/07 10:59:37;;;;;;;;;17.00;16.00;;;;;5.35;100.00;102928.56;4920507;28;44877;-82
2023/02/07 11:02:29;;;;;;;;;17.00;13.00;;;;;5.38;100.00;102924.41;4924836;28;45449;-83
2023/02/07 11:05:24;;;;;;;;;15.67;15.00;;;;;5.31;100.00;102916.91;4895056;29;47007;-83
2023/02/07 11:07:58;;;;;;;;;3.33;3.33;;;;;5.43;100.00;102924.72;4894165;29;45890;-82
2023/02/07 11:10:39;;;;;;;;;16.00;14.00;;;;;5.46;100.00;102921.41;4907271;28;45457;-83
2023/02/07 11:13:14;;;;;;;;;17.67;14.00;;;;;5.57;100.00;102926.59;4908102;28;45485;-81
2023/02/07 11:15:58;;;;;;;;;15.67;15.67;;;;;5.66;100.00;102912.25;4900998;28;48117;-81
2023/02/07 11:18:36;;;;;;;;;13.67;12.67;;;;;5.86;100.00;102926.78;4909160;28;45644;-83
2023/02/07 11:21:03;;;;;;;;;17.33;17.00;;;;;5.81;100.00;102911.53;4906751;29;45510;-83
2023/02/07 11:23:29;;;;;;;;;15.67;13.00;;;;;5.87;100.00;102920.72;4909238;29;45390;-82
2023/02/07 11:25:56;;;;;;;;;16.00;13.00;;;;;5.88;100.00;102906.69;4910080;28;47567;-82
2023/02/07 11:28:26;;;;;;;;;19.33;17.00;;;;;5.90;100.00;102899.78;4913311;28;45490;-83
2023/02/07 11:31:03;;;;;;;;;18.33;15.67;;;;;5.77;100.00;102887.47;4904117;28;45884;-84
2023/02/07 11:33:34;;;;;;;;;17.00;14.33;;;;;5.78;100.00;102900.78;4907369;29;46035;-84
2023/02/07 11:36:01;;;;;;;;;17.33;14.00;;;;;5.78;100.00;102895.50;4915266;28;45330;-84